Time;durP1;ratioP1;P1;durP2;ratioP2;P2;SDS_P1;SDS_P2;PMS_P1;PMS_P2;Temp;Humidity;BMP_temperature;BMP_pressure;BME280_temperature;BME280_humidity;BME280_pressure;Samples;Min_cycle;Max_cycle;Signal;HPM_P1;HPM_P2
2023/09/10 00:00:09;;;;;;;12.97;8.30;;;24.80;65.00;;;;;;352225;28;1005;-56
2023/09/10 00:00:20;;;;;;;12.18;8.32;;;24.80;65.00;;;;;;352296;28;987;-56
2023/09/10 00:00:30;;;;;;;10.77;8.07;;;24.80;65.30;;;;;;352339;28;1417;-56
2023/09/10 00:00:41;;;;;;;10.57;8.23;;;24.80;65.30;;;;;;352480;28;834;-56
2023/09/10 00:00:52;;;;;;;11.82;8.35;;;24.80;65.30;;;;;;352439;28;856;-56
2023/09/10 00:01:04;;;;;;;12.48;8.25;;;24.80;65.20;;;;;;352316;28;1062;-55
2023/09/10 00:01:15;;;;;;;11.50;8.02;;;24.80;65.00;;;;;;352422;28;1042;-55
2023/09/10 00:01:25;;;;;;;10.40;7.97;;;24.80;64.90;;;;;;352341;28;1076;-56
2023/09/10 00:01:36;;;;;;;10.47;8.37;;;24.80;64.90;;;;;;352388;28;974;-56
2023/09/10 00:01:47;;;;;;;10.55;8.35;;;24.80;65.00;;;;;;352368;28;997;-56
2023/09/10 00:01:58;;;;;;;11.43;8.77;;;24.80;65.00;;;;;;352480;28;876;-56
2023/09/10 00:02:09;;;;;;;12.25;8.93;;;24.80;65.10;;;;;;352434;28;1113;-55
2023/09/10 00:02:20;;;;;;;12.15;8.85;;;24.80;65.30;;;;;;352379;28;1130;-56
2023/09/10 00:02:30;;;;;;;12.43;8.43;;;24.80;65.30;;;;;;352347;28;990;-56
2023/09/10 00:02:41;;;;;;;11.52;7.93;;;24.70;65.40;;;;;;352434;28;975;-57
2023/09/10 00:02:52;;;;;;;11.30;7.82;;;24.80;65.20;;;;;;352455;28;1034;-56
2023/09/10 00:03:03;;;;;;;11.37;8.03;;;24.80;65.20;;;;;;352388;28;1110;-56
2023/09/10 00:03:14;;;;;;;12.07;8.35;;;24.80;65.20;;;;;;352361;28;994;-56
2023/09/10 00:03:25;;;;;;;13.07;8.75;;;24.80;65.30;;;;;;352355;28;1475;-56
2023/09/10 00:03:36;;;;;;;12.55;8.43;;;24.70;65.30;;;;;;352448;28;1141;-56
2023/09/10 00:03:47;;;;;;;11.63;8.07;;;24.70;65.20;;;;;;352444;28;1109;-57
2023/09/10 00:03:57;;;;;;;10.52;7.97;;;24.70;65.20;;;;;;352350;28;1148;-56
2023/09/10 00:04:08;;;;;;;11.05;8.23;;;24.70;65.40;;;;;;352440;28;975;-55
2023/09/10 00:04:19;;;;;;;12.50;8.40;;;24.70;65.30;;;;;;352467;28;1005;-56
2023/09/10 00:04:32;;;;;;;12.57;8.23;;;24.70;65.40;;;;;;352450;28;805;-56
2023/09/10 00:04:42;;;;;;;12.73;8.63;;;24.80;65.40;;;;;;352371;28;1041;-56
2023/09/10 00:04:53;;;;;;;11.88;8.65;;;24.70;65.40;;;;;;352368;28;1173;-56
2023/09/10 00:05:07;;;;;;;11.73;8.40;;;24.70;65.50;;;;;;352448;28;903;-55
2023/09/10 00:05:18;;;;;;;11.30;8.55;;;24.80;65.50;;;;;;352297;28;995;-56
2023/09/10 00:05:31;;;;;;;11.52;8.48;;;24.70;65.60;;;;;;352415;28;1359;-57
2023/09/10 00:05:43;;;;;;;10.68;8.70;;;24.70;65.70;;;;;;352431;28;1042;-56
2023/09/10 00:05:53;;;;;;;11.68;8.43;;;24.70;65.70;;;;;;352404;28;951;-56
2023/09/10 00:06:05;;;;;;;12.27;8.52;;;24.70;65.70;;;;;;352194;28;898;-57
2023/09/10 00:06:16;;;;;;;12.10;8.50;;;24.70;65.70;;;;;;352224;28;1042;-56
2023/09/10 00:06:26;;;;;;;11.43;8.47;;;24.70;65.80;;;;;;352234;28;1058;-56
2023/09/10 00:06:37;;;;;;;11.63;8.63;;;24.70;65.90;;;;;;352254;28;982;-56
2023/09/10 00:06:48;;;;;;;12.10;8.85;;;24.70;65.80;;;;;;352097;28;1066;-56
2023/09/10 00:06:59;;;;;;;12.90;8.90;;;24.70;65.70;;;;;;352404;28;1070;-56
2023/09/10 00:07:09;;;;;;;12.77;8.73;;;24.70;65.80;;;;;;352409;28;813;-56
2023/09/10 00:07:20;;;;;;;12.13;8.45;;;24.70;65.80;;;;;;352370;28;1054;-55
2023/09/10 00:07:31;;;;;;;12.10;8.50;;;24.70;65.90;;;;;;352336;28;1798;-55
2023/09/10 00:07:42;;;;;;;11.52;8.35;;;24.70;65.90;;;;;;352364;28;1232;-56
2023/09/10 00:07:53;;;;;;;12.25;8.40;;;24.70;65.90;;;;;;352389;28;1023;-56
2023/09/10 00:08:04;;;;;;;12.30;8.57;;;24.70;65.90;;;;;;352391;28;1200;-58
2023/09/10 00:08:14;;;;;;;12.45;8.80;;;24.70;66.00;;;;;;352342;28;1128;-56
2023/09/10 00:08:26;;;;;;;11.67;8.63;;;24.70;66.20;;;;;;352344;28;1035;-56
2023/09/10 00:08:37;;;;;;;12.60;8.52;;;24.70;66.30;;;;;;352356;28;1154;-56
2023/09/10 00:08:47;;;;;;;12.98;9.00;;;24.70;66.40;;;;;;352368;28;1089;-55
2023/09/10 00:08:58;;;;;;;12.70;8.90;;;24.70;66.30;;;;;;352218;28;1274;-56
2023/09/10 00:09:09;;;;;;;11.77;8.60;;;24.70;66.20;;;;;;352392;28;979;-55
2023/09/10 00:09:20;;;;;;;11.88;8.43;;;24.70;65.90;;;;;;352441;28;856;-55
2023/09/10 00:09:31;;;;;;;11.75;8.48;;;24.70;65.80;;;;;;352336;28;1221;-56
2023/09/10 00:09:41;;;;;;;12.80;8.35;;;24.70;65.70;;;;;;352342;28;1082;-56
2023/09/10 00:09:52;;;;;;;14.75;8.38;;;24.70;65.70;;;;;;352420;28;848;-56
2023/09/10 00:10:03;;;;;;;16.40;8.83;;;24.70;65.80;;;;;;352384;28;1407;-56
2023/09/10 00:10:14;;;;;;;15.95;9.23;;;24.70;65.70;;;;;;352426;28;1339;-55
2023/09/10 00:10:24;;;;;;;15.80;9.80;;;24.70;65.70;;;;;;352316;28;999;-55
2023/09/10 00:10:35;;;;;;;14.02;9.40;;;24.70;65.70;;;;;;352397;28;1606;-56
2023/09/10 00:10:46;;;;;;;13.57;9.03;;;24.70;65.80;;;;;;352416;28;875;-57
2023/09/10 00:10:57;;;;;;;12.68;8.65;;;24.70;65.90;;;;;;352451;28;1062;-57
2023/09/10 00:11:08;;;;;;;12.40;8.85;;;24.70;65.80;;;;;;352376;28;1122;-56
2023/09/10 00:11:19;;;;;;;12.20;8.97;;;24.70;65.80;;;;;;352335;28;988;-56
2023/09/10 00:11:29;;;;;;;12.93;9.02;;;24.70;65.70;;;;;;352409;28;964;-56
2023/09/10 00:11:40;;;;;;;11.98;9.50;;;24.70;65.70;;;;;;352371;28;1134;-56
2023/09/10 00:11:52;;;;;;;12.57;9.53;;;24.70;65.70;;;;;;352488;28;816;-57
2023/09/10 00:12:02;;;;;;;12.05;9.45;;;24.70;65.70;;;;;;352480;28;1205;-55
2023/09/10 00:12:13;;;;;;;12.15;8.90;;;24.70;65.60;;;;;;352333;28;1037;-56
2023/09/10 00:12:24;;;;;;;11.00;8.63;;;24.70;65.80;;;;;;352397;28;1026;-56
2023/09/10 00:12:34;;;;;;;11.15;8.65;;;24.70;66.10;;;;;;352409;28;979;-56
2023/09/10 00:12:45;;;;;;;12.85;8.95;;;24.70;66.30;;;;;;352306;28;1439;-55
2023/09/10 00:12:56;;;;;;;13.10;9.30;;;24.70;66.10;;;;;;352379;28;1094;-56
2023/09/10 00:13:06;;;;;;;13.60;9.43;;;24.70;66.20;;;;;;352334;28;1090;-56
2023/09/10 00:13:17;;;;;;;13.50;9.60;;;24.70;66.20;;;;;;352433;28;903;-56
2023/09/10 00:13:28;;;;;;;14.52;9.85;;;24.70;66.40;;;;;;352461;28;876;-55
2023/09/10 00:13:39;;;;;;;14.13;9.90;;;24.70;66.70;;;;;;352387;28;1118;-56
2023/09/10 00:13:50;;;;;;;13.52;9.68;;;24.70;66.80;;;;;;352361;28;1450;-56
2023/09/10 00:14:01;;;;;;;11.87;9.43;;;24.70;66.90;;;;;;352373;28;998;-56
2023/09/10 00:14:11;;;;;;;11.37;9.53;;;24.70;66.80;;;;;;352445;28;852;-56
2023/09/10 00:14:22;;;;;;;11.45;9.63;;;24.70;66.90;;;;;;352377;28;1318;-56
2023/09/10 00:14:33;;;;;;;11.73;9.45;;;24.70;66.80;;;;;;352366;28;1008;-57
2023/09/10 00:14:43;;;;;;;12.43;9.33;;;24.70;66.70;;;;;;352440;28;947;-55
2023/09/10 00:14:54;;;;;;;12.88;9.05;;;24.70;66.80;;;;;;352370;28;936;-55
2023/09/10 00:15:05;;;;;;;12.85;9.00;;;24.70;66.60;;;;;;352445;28;892;-56
2023/09/10 00:15:16;;;;;;;12.50;8.70;;;24.70;66.20;;;;;;352407;28;1030;-54
2023/09/10 00:15:27;;;;;;;13.38;9.15;;;24.70;66.00;;;;;;352374;28;1111;-57
2023/09/10 00:15:39;;;;;;;13.63;9.37;;;24.70;65.80;;;;;;352400;28;1462;-56
2023/09/10 00:15:51;;;;;;;13.55;9.45;;;24.70;65.50;;;;;;352278;28;1185;-57
2023/09/10 00:16:02;;;;;;;12.50;8.98;;;24.70;65.40;;;;;;352319;28;1046;-57
2023/09/10 00:16:13;;;;;;;11.82;8.73;;;24.70;65.40;;;;;;352293;28;1185;-56
2023/09/10 00:16:23;;;;;;;12.50;8.80;;;24.70;65.60;;;;;;352367;28;971;-56
2023/09/10 00:16:34;;;;;;;11.50;8.80;;;24.70;65.70;;;;;;352389;28;1114;-57
2023/09/10 00:16:45;;;;;;;12.43;8.75;;;24.70;65.50;;;;;;352266;28;1914;-56
2023/09/10 00:16:55;;;;;;;12.55;8.85;;;24.70;65.60;;;;;;352402;28;1002;-56
2023/09/10 00:17:06;;;;;;;13.33;9.13;;;24.70;65.60;;;;;;352417;28;1038;-56
2023/09/10 00:17:17;;;;;;;12.88;9.38;;;24.70;65.70;;;;;;352358;28;902;-56
2023/09/10 00:17:27;;;;;;;13.45;9.60;;;24.70;65.90;;;;;;352454;28;868;-56
2023/09/10 00:17:38;;;;;;;14.35;9.70;;;24.70;66.10;;;;;;352395;28;1082;-56
2023/09/10 00:17:49;;;;;;;13.80;9.73;;;24.70;66.00;;;;;;352329;28;1053;-54
2023/09/10 00:18:00;;;;;;;11.32;9.38;;;24.70;65.80;;;;;;352398;28;954;-55
2023/09/10 00:18:11;;;;;;;11.50;8.80;;;24.70;65.80;;;;;;352345;28;1480;-61
2023/09/10 00:18:23;;;;;;;12.75;8.75;;;24.70;66.00;;;;;;352269;28;1496;-56
2023/09/10 00:18:33;;;;;;;13.88;9.25;;;24.70;66.20;;;;;;352381;28;1130;-56
2023/09/10 00:18:44;;;;;;;13.20;9.63;;;24.70;66.40;;;;;;352406;28;1114;-56
2023/09/10 00:18:55;;;;;;;12.87;9.63;;;24.70;66.40;;;;;;352294;28;1161;-55
2023/09/10 00:19:05;;;;;;;13.52;9.60;;;24.70;66.50;;;;;;352426;28;809;-56
2023/09/10 00:19:16;;;;;;;12.52;9.57;;;24.70;66.50;;;;;;352372;28;1122;-57
2023/09/10 00:19:27;;;;;;;13.30;9.50;;;24.70;66.30;;;;;;352333;28;983;-56
2023/09/10 00:19:37;;;;;;;11.20;9.18;;;24.70;66.20;;;;;;352407;28;1027;-57
2023/09/10 00:19:48;;;;;;;11.18;9.05;;;24.70;66.00;;;;;;352363;28;1085;-55
2023/09/10 00:19:59;;;;;;;10.98;9.05;;;24.70;65.90;;;;;;352351;28;974;-56
2023/09/10 00:20:10;;;;;;;12.43;9.00;;;24.70;65.80;;;;;;352375;28;998;-56
2023/09/10 00:20:21;;;;;;;13.85;9.25;;;24.70;65.90;;;;;;352420;28;1121;-56
2023/09/10 00:20:32;;;;;;;14.02;9.23;;;24.70;66.10;;;;;;352398;28;979;-57
2023/09/10 00:20:42;;;;;;;13.40;9.30;;;24.70;66.30;;;;;;352370;28;1150;-56
2023/09/10 00:20:53;;;;;;;13.10;9.52;;;24.70;66.60;;;;;;352363;28;968;-56
2023/09/10 00:21:04;;;;;;;13.15;9.52;;;24.70;66.80;;;;;;352334;28;1030;-56
2023/09/10 00:21:15;;;;;;;13.30;9.07;;;24.80;66.60;;;;;;352354;28;1111;-56
2023/09/10 00:21:26;;;;;;;12.37;8.83;;;24.70;66.40;;;;;;352426;28;870;-56
2023/09/10 00:21:36;;;;;;;12.93;9.15;;;24.70;66.40;;;;;;352272;28;1205;-56
2023/09/10 00:21:47;;;;;;;13.30;9.35;;;24.70;66.60;;;;;;352403;28;857;-55
2023/09/10 00:21:58;;;;;;;12.85;9.23;;;24.70;66.50;;;;;;352411;28;998;-55
2023/09/10 00:22:08;;;;;;;12.07;8.77;;;24.70;66.50;;;;;;352282;28;1551;-56
2023/09/10 00:22:19;;;;;;;12.15;8.93;;;24.70;66.50;;;;;;352371;28;1549;-55
2023/09/10 00:22:30;;;;;;;11.85;8.95;;;24.70;66.40;;;;;;352309;28;1488;-56
2023/09/10 00:22:43;;;;;;;11.33;9.20;;;24.70;66.30;;;;;;352314;28;951;-57
2023/09/10 00:22:56;;;;;;;12.10;9.40;;;24.70;66.20;;;;;;352305;28;1607;-56
2023/09/10 00:23:07;;;;;;;13.30;9.65;;;24.70;66.20;;;;;;352304;28;1014;-56
2023/09/10 00:23:18;;;;;;;12.75;9.43;;;24.70;66.40;;;;;;352369;28;1568;-56
2023/09/10 00:23:28;;;;;;;12.52;8.98;;;24.70;66.40;;;;;;352269;28;1290;-56
2023/09/10 00:23:39;;;;;;;12.13;8.70;;;24.70;66.10;;;;;;352379;28;999;-56
2023/09/10 00:23:50;;;;;;;11.23;8.27;;;24.70;65.80;;;;;;352349;28;1099;-56
2023/09/10 00:24:00;;;;;;;10.35;7.72;;;24.70;65.70;;;;;;352357;28;918;-56
2023/09/10 00:24:11;;;;;;;10.60;7.70;;;24.70;65.50;;;;;;352407;28;853;-56
2023/09/10 00:24:23;;;;;;;10.90;8.23;;;24.70;65.50;;;;;;352323;28;2418;-56
2023/09/10 00:24:33;;;;;;;11.85;8.93;;;24.70;65.80;;;;;;352264;28;1644;-55
2023/09/10 00:24:44;;;;;;;11.53;9.20;;;24.70;66.00;;;;;;352305;28;1418;-56
2023/09/10 00:24:55;;;;;;;12.75;9.32;;;24.80;66.20;;;;;;352345;28;938;-57
2023/09/10 00:25:06;;;;;;;12.10;9.32;;;24.80;66.40;;;;;;352390;28;1073;-56
2023/09/10 00:25:16;;;;;;;14.02;9.43;;;24.70;66.50;;;;;;352363;28;1023;-56
2023/09/10 00:25:28;;;;;;;13.23;9.45;;;24.70;66.50;;;;;;352313;28;1038;-56
2023/09/10 00:25:39;;;;;;;12.25;9.07;;;24.70;66.50;;;;;;352373;28;946;-56
2023/09/10 00:25:51;;;;;;;11.50;9.03;;;24.70;66.70;;;;;;352331;28;1046;-57
2023/09/10 00:26:01;;;;;;;12.55;9.32;;;24.80;66.80;;;;;;352445;28;1198;-56
2023/09/10 00:26:12;;;;;;;11.98;9.30;;;24.70;66.90;;;;;;352383;28;1108;-56
2023/09/10 00:26:24;;;;;;;11.50;8.97;;;24.80;66.80;;;;;;352367;28;809;-55
2023/09/10 00:26:35;;;;;;;10.98;8.35;;;24.80;66.50;;;;;;352321;28;911;-57
2023/09/10 00:26:46;;;;;;;10.37;7.97;;;24.70;66.10;;;;;;352435;28;975;-56
2023/09/10 00:26:57;;;;;;;10.23;7.63;;;24.80;65.60;;;;;;352428;28;1026;-55
2023/09/10 00:27:08;;;;;;;11.38;7.95;;;24.80;65.50;;;;;;352321;28;918;-56
2023/09/10 00:27:18;;;;;;;11.63;8.43;;;24.70;65.70;;;;;;352375;28;1007;-56
2023/09/10 00:27:29;;;;;;;12.75;8.88;;;24.70;65.90;;;;;;352430;28;1019;-56
2023/09/10 00:27:40;;;;;;;12.17;9.00;;;24.70;65.90;;;;;;352361;28;1165;-57
2023/09/10 00:27:50;;;;;;;12.50;8.85;;;24.70;66.10;;;;;;352259;28;1609;-56
2023/09/10 00:28:01;;;;;;;12.63;8.52;;;24.70;66.20;;;;;;352415;28;960;-55
2023/09/10 00:28:12;;;;;;;14.05;8.60;;;24.70;66.40;;;;;;352451;28;916;-56
2023/09/10 00:28:23;;;;;;;13.23;8.65;;;24.70;66.50;;;;;;352404;28;999;-55
2023/09/10 00:28:34;;;;;;;11.57;8.43;;;24.70;66.40;;;;;;352346;28;919;-55
2023/09/10 00:28:44;;;;;;;10.43;8.32;;;24.70;66.30;;;;;;352462;28;837;-56
2023/09/10 00:28:55;;;;;;;10.27;8.38;;;24.80;66.30;;;;;;352367;28;869;-56
2023/09/10 00:29:06;;;;;;;12.05;8.68;;;24.70;66.40;;;;;;352359;28;1019;-55
2023/09/10 00:29:16;;;;;;;12.60;8.50;;;24.70;66.30;;;;;;352337;28;901;-55
2023/09/10 00:29:27;;;;;;;12.90;8.20;;;24.70;66.20;;;;;;352350;28;1008;-56
2023/09/10 00:29:38;;;;;;;12.35;7.95;;;24.80;66.00;;;;;;352367;28;1102;-56
2023/09/10 00:29:49;;;;;;;11.97;7.93;;;24.70;65.90;;;;;;352417;28;851;-56
2023/09/10 00:29:59;;;;;;;11.98;7.70;;;24.70;65.80;;;;;;352290;28;1154;-56
2023/09/10 00:30:11;;;;;;;10.45;7.57;;;24.70;65.90;;;;;;352379;28;931;-56
2023/09/10 00:30:21;;;;;;;10.43;7.93;;;24.70;66.20;;;;;;352332;28;1167;-56
2023/09/10 00:30:32;;;;;;;10.43;8.20;;;24.70;66.20;;;;;;352319;28;1007;-56
2023/09/10 00:30:43;;;;;;;11.30;8.45;;;24.70;66.00;;;;;;352267;28;1102;-56
2023/09/10 00:30:54;;;;;;;12.40;8.45;;;24.70;65.70;;;;;;352396;28;1062;-56
2023/09/10 00:31:05;;;;;;;11.80;8.55;;;24.80;65.70;;;;;;352384;28;1866;-55
2023/09/10 00:31:16;;;;;;;11.27;8.88;;;24.70;65.70;;;;;;352499;28;1057;-56
2023/09/10 00:31:26;;;;;;;10.52;8.55;;;24.70;65.60;;;;;;352323;28;976;-55
2023/09/10 00:31:37;;;;;;;10.40;8.40;;;24.70;65.70;;;;;;352417;28;1031;-56
2023/09/10 00:31:48;;;;;;;10.77;8.15;;;24.70;65.60;;;;;;352335;28;1137;-55
2023/09/10 00:31:59;;;;;;;11.15;8.27;;;24.70;65.50;;;;;;352410;28;978;-56
2023/09/10 00:32:10;;;;;;;11.80;8.15;;;24.70;65.60;;;;;;352344;28;979;-56
2023/09/10 00:32:21;;;;;;;11.50;8.27;;;24.80;65.50;;;;;;352403;28;1043;-61
2023/09/10 00:32:32;;;;;;;11.25;8.32;;;24.70;65.40;;;;;;352393;28;988;-56
2023/09/10 00:32:43;;;;;;;10.90;8.60;;;24.70;65.40;;;;;;352362;28;1407;-56
2023/09/10 00:32:54;;;;;;;11.02;8.32;;;24.80;65.50;;;;;;352271;28;1321;-55
2023/09/10 00:33:05;;;;;;;11.10;8.07;;;24.80;65.40;;;;;;352216;28;1242;-57
2023/09/10 00:33:17;;;;;;;10.68;7.63;;;24.70;65.20;;;;;;352438;28;824;-56
2023/09/10 00:33:28;;;;;;;9.75;7.30;;;24.70;65.00;;;;;;352370;28;1074;-55
2023/09/10 00:33:39;;;;;;;9.57;7.47;;;24.70;64.90;;;;;;352279;28;1451;-57
2023/09/10 00:33:49;;;;;;;11.13;7.90;;;24.70;64.80;;;;;;352367;28;967;-58
2023/09/10 00:34:01;;;;;;;12.52;8.30;;;24.70;64.70;;;;;;352431;28;887;-56
2023/09/10 00:34:12;;;;;;;13.02;8.30;;;24.70;64.80;;;;;;352428;28;1117;-59
2023/09/10 00:34:23;;;;;;;11.45;7.95;;;24.70;64.80;;;;;;352302;28;1063;-55
2023/09/10 00:34:34;;;;;;;10.98;7.43;;;24.70;64.90;;;;;;352462;28;845;-57
2023/09/10 00:34:45;;;;;;;10.10;7.27;;;24.70;65.00;;;;;;352429;28;956;-55
2023/09/10 00:34:55;;;;;;;10.43;7.25;;;24.70;65.20;;;;;;352340;28;1794;-58
2023/09/10 00:35:08;;;;;;;9.90;7.63;;;24.80;65.30;;;;;;352347;28;1038;-56
2023/09/10 00:35:18;;;;;;;9.90;7.85;;;24.80;65.30;;;;;;352410;28;1019;-56
2023/09/10 00:35:29;;;;;;;9.18;7.32;;;24.70;65.10;;;;;;352429;28;1007;-56
2023/09/10 00:35:40;;;;;;;8.60;6.93;;;24.70;64.80;;;;;;352411;28;1011;-55
2023/09/10 00:35:50;;;;;;;10.15;7.28;;;24.70;64.60;;;;;;352294;28;1094;-56
2023/09/10 00:36:01;;;;;;;12.63;8.10;;;24.80;64.50;;;;;;352382;28;1146;-57
2023/09/10 00:36:12;;;;;;;14.15;8.45;;;24.70;64.50;;;;;;352435;28;1039;-56
2023/09/10 00:36:23;;;;;;;12.73;7.77;;;24.70;64.50;;;;;;352374;28;1267;-56
2023/09/10 00:36:34;;;;;;;11.37;7.30;;;24.70;64.60;;;;;;352296;28;1008;-56
2023/09/10 00:36:45;;;;;;;9.86;7.10;;;24.70;64.60;;;;;;352312;28;1901;-56
2023/09/10 00:36:55;;;;;;;9.70;7.20;;;24.70;64.70;;;;;;352340;28;1141;-54
2023/09/10 00:37:07;;;;;;;10.05;7.47;;;24.70;64.70;;;;;;352351;28;1043;-56
2023/09/10 00:37:18;;;;;;;10.38;7.60;;;24.70;64.80;;;;;;352339;28;926;-57
2023/09/10 00:37:28;;;;;;;9.93;7.50;;;24.70;64.90;;;;;;352364;28;1012;-56
2023/09/10 00:37:40;;;;;;;9.73;7.38;;;24.70;64.90;;;;;;352390;28;1014;-56
2023/09/10 00:37:50;;;;;;;9.23;7.28;;;24.70;64.80;;;;;;352294;28;991;-57
2023/09/10 00:38:01;;;;;;;10.02;7.28;;;24.70;64.60;;;;;;352402;28;978;-56
2023/09/10 00:38:12;;;;;;;10.50;7.60;;;24.80;64.60;;;;;;352436;28;821;-57
2023/09/10 00:38:23;;;;;;;11.27;7.57;;;24.70;64.50;;;;;;352355;28;1038;-56
2023/09/10 00:38:33;;;;;;;11.13;7.37;;;24.70;64.50;;;;;;352308;28;1039;-56
2023/09/10 00:38:44;;;;;;;11.45;7.20;;;24.70;64.50;;;;;;352408;28;974;-56
2023/09/10 00:38:55;;;;;;;11.82;7.05;;;24.70;64.50;;;;;;352374;28;1094;-57
2023/09/10 00:39:05;;;;;;;12.07;7.00;;;24.70;64.50;;;;;;352382;28;963;-56
2023/09/10 00:39:16;;;;;;;11.03;6.90;;;24.70;64.40;;;;;;352335;28;905;-58
2023/09/10 00:39:27;;;;;;;9.63;6.70;;;24.70;64.30;;;;;;352384;28;1022;-56
2023/09/10 00:39:38;;;;;;;9.77;6.97;;;24.70;64.30;;;;;;352425;28;986;-55
2023/09/10 00:39:48;;;;;;;10.60;7.37;;;24.70;64.40;;;;;;352403;28;872;-57
2023/09/10 00:39:59;;;;;;;9.60;7.57;;;24.70;64.40;;;;;;352264;28;1058;-56
2023/09/10 00:40:10;;;;;;;9.43;7.53;;;24.70;64.40;;;;;;352394;28;1082;-57
2023/09/10 00:40:21;;;;;;;9.32;7.32;;;24.70;64.20;;;;;;352352;28;1215;-56
2023/09/10 00:40:32;;;;;;;9.30;6.70;;;24.70;64.00;;;;;;352356;28;1097;-57
2023/09/10 00:40:43;;;;;;;9.07;6.50;;;24.80;64.00;;;;;;352328;28;1038;-56
2023/09/10 00:40:53;;;;;;;10.43;6.55;;;24.70;64.10;;;;;;352414;28;829;-57
2023/09/10 00:41:06;;;;;;;12.17;6.97;;;24.70;64.20;;;;;;352434;28;975;-56
2023/09/10 00:41:17;;;;;;;12.00;7.20;;;24.70;64.40;;;;;;352326;28;1069;-57
2023/09/10 00:41:27;;;;;;;10.55;7.22;;;24.70;64.50;;;;;;352342;28;1358;-57
2023/09/10 00:41:38;;;;;;;10.02;7.22;;;24.70;64.60;;;;;;352397;28;825;-57
2023/09/10 00:41:49;;;;;;;9.27;7.13;;;24.70;64.70;;;;;;352354;28;992;-56
2023/09/10 00:42:00;;;;;;;11.10;7.40;;;24.70;64.80;;;;;;352391;28;1015;-56
2023/09/10 00:42:10;;;;;;;11.57;7.78;;;24.80;65.00;;;;;;352421;28;1078;-56
2023/09/10 00:42:22;;;;;;;11.45;7.75;;;24.80;65.20;;;;;;352360;28;1012;-57
2023/09/10 00:42:33;;;;;;;9.82;7.57;;;24.80;65.30;;;;;;352407;28;959;-57
2023/09/10 00:42:44;;;;;;;9.87;7.17;;;24.70;65.10;;;;;;352438;28;916;-56
2023/09/10 00:42:55;;;;;;;10.40;7.32;;;24.70;65.00;;;;;;352330;28;1015;-56
2023/09/10 00:43:06;;;;;;;10.73;7.50;;;24.80;65.10;;;;;;352338;28;1098;-57
2023/09/10 00:43:16;;;;;;;10.93;7.45;;;24.70;65.00;;;;;;352435;28;1019;-55
2023/09/10 00:43:27;;;;;;;10.95;7.55;;;24.70;64.90;;;;;;352262;28;1528;-57
2023/09/10 00:43:38;;;;;;;10.90;7.37;;;24.70;64.90;;;;;;352345;28;1474;-57
2023/09/10 00:43:49;;;;;;;9.73;7.10;;;24.70;64.80;;;;;;352398;28;1300;-56
2023/09/10 00:44:00;;;;;;;9.82;7.18;;;24.70;64.90;;;;;;352314;28;1043;-55
2023/09/10 00:44:11;;;;;;;9.77;7.50;;;24.80;65.00;;;;;;352365;28;1051;-57
2023/09/10 00:44:23;;;;;;;11.17;7.90;;;24.70;65.00;;;;;;352421;28;1082;-55
2023/09/10 00:44:33;;;;;;;12.20;8.10;;;24.70;64.90;;;;;;352284;28;1111;-56
2023/09/10 00:44:44;;;;;;;13.13;7.95;;;24.70;65.00;;;;;;352420;28;869;-55
2023/09/10 00:44:56;;;;;;;11.93;7.70;;;24.70;65.10;;;;;;352409;28;1166;-59
2023/09/10 00:45:09;;;;;;;11.73;7.68;;;24.80;65.10;;;;;;352307;28;1186;-55
2023/09/10 00:45:19;;;;;;;11.93;8.10;;;24.80;65.10;;;;;;352361;28;1126;-57
2023/09/10 00:45:31;;;;;;;11.45;7.70;;;24.80;65.00;;;;;;352359;28;1145;-58
2023/09/10 00:45:41;;;;;;;10.02;7.38;;;24.70;64.90;;;;;;352334;28;1946;-56
2023/09/10 00:45:52;;;;;;;8.85;7.25;;;24.70;65.00;;;;;;352340;28;1142;-58
2023/09/10 00:46:03;;;;;;;10.05;7.18;;;24.70;65.00;;;;;;352389;28;1031;-56
2023/09/10 00:46:14;;;;;;;10.65;7.30;;;24.70;64.90;;;;;;352322;28;1205;-58
2023/09/10 00:46:25;;;;;;;11.10;7.40;;;24.80;64.90;;;;;;352349;28;1213;-56
2023/09/10 00:46:36;;;;;;;10.57;7.65;;;24.70;64.80;;;;;;352379;28;917;-57
2023/09/10 00:46:47;;;;;;;9.88;7.40;;;24.70;64.80;;;;;;352379;28;995;-56
2023/09/10 00:46:58;;;;;;;10.35;7.93;;;24.80;64.90;;;;;;352281;28;1104;-58
2023/09/10 00:47:08;;;;;;;9.90;7.60;;;24.80;65.00;;;;;;352400;28;1122;-56
2023/09/10 00:47:20;;;;;;;9.57;7.38;;;24.80;65.10;;;;;;352267;28;1086;-56
2023/09/10 00:47:31;;;;;;;9.75;7.15;;;24.70;65.00;;;;;;352363;28;1189;-56
2023/09/10 00:47:44;;;;;;;10.85;7.32;;;24.80;64.90;;;;;;352304;28;1050;-56
2023/09/10 00:47:55;;;;;;;12.60;7.65;;;24.80;64.80;;;;;;352393;28;1046;-56
2023/09/10 00:48:06;;;;;;;12.00;7.30;;;24.70;64.70;;;;;;352343;28;904;-55
2023/09/10 00:48:17;;;;;;;11.45;7.35;;;24.80;64.60;;;;;;352390;28;1078;-57
2023/09/10 00:48:28;;;;;;;10.90;7.32;;;24.80;64.60;;;;;;352248;28;1110;-56
2023/09/10 00:48:39;;;;;;;10.82;7.55;;;24.80;64.70;;;;;;352377;28;983;-56
2023/09/10 00:48:50;;;;;;;11.95;7.55;;;24.80;64.80;;;;;;352250;28;1145;-56
2023/09/10 00:49:00;;;;;;;12.02;7.60;;;24.80;64.80;;;;;;352428;28;872;-55
2023/09/10 00:49:11;;;;;;;11.27;7.60;;;24.80;64.80;;;;;;352193;28;1349;-57
2023/09/10 00:49:22;;;;;;;10.40;7.40;;;24.80;65.00;;;;;;352356;28;1114;-56
2023/09/10 00:49:33;;;;;;;10.10;7.63;;;24.80;65.00;;;;;;352236;28;1051;-55
2023/09/10 00:49:44;;;;;;;10.35;7.68;;;24.70;65.00;;;;;;352402;28;1155;-56
2023/09/10 00:49:55;;;;;;;10.20;7.65;;;24.80;65.10;;;;;;352316;28;848;-56
2023/09/10 00:50:09;;;;;;;11.52;7.72;;;24.70;65.30;;;;;;352394;28;999;-56
2023/09/10 00:50:20;;;;;;;11.98;7.72;;;24.70;65.40;;;;;;352291;28;991;-55
2023/09/10 00:50:31;;;;;;;10.93;7.65;;;24.70;65.30;;;;;;352424;28;927;-56
2023/09/10 00:50:42;;;;;;;10.40;7.63;;;24.80;65.20;;;;;;352265;28;1066;-55
2023/09/10 00:50:52;;;;;;;10.15;7.80;;;24.70;65.10;;;;;;352328;28;1465;-56
2023/09/10 00:51:03;;;;;;;10.50;7.95;;;24.70;64.90;;;;;;352402;28;1070;-55
2023/09/10 00:51:14;;;;;;;10.15;7.90;;;24.80;65.00;;;;;;352381;28;938;-57
2023/09/10 00:51:26;;;;;;;11.13;7.90;;;24.70;65.10;;;;;;352313;28;960;-55
2023/09/10 00:51:37;;;;;;;10.55;7.55;;;24.80;65.00;;;;;;352383;28;1201;-56
2023/09/10 00:51:48;;;;;;;10.90;7.45;;;24.80;64.60;;;;;;352339;28;888;-56
2023/09/10 00:52:02;;;;;;;9.95;7.28;;;24.80;64.40;;;;;;352386;28;1043;-57
2023/09/10 00:52:13;;;;;;;9.90;7.68;;;24.80;64.40;;;;;;352294;28;1035;-55
2023/09/10 00:52:25;;;;;;;10.25;7.95;;;24.80;64.40;;;;;;352332;28;987;-55
2023/09/10 00:52:40;;;;;;;11.05;8.10;;;24.80;64.40;;;;;;352325;28;1042;-55
2023/09/10 00:52:57;;;;;;;12.23;7.97;;;24.80;64.60;;;;;;352362;28;963;-56
2023/09/10 00:53:09;;;;;;;12.77;7.75;;;24.70;64.50;;;;;;352326;28;1270;-56
2023/09/10 00:53:21;;;;;;;12.25;7.75;;;24.70;64.40;;;;;;352408;28;951;-56
2023/09/10 00:53:31;;;;;;;11.95;7.88;;;24.70;64.50;;;;;;352408;28;987;-56
2023/09/10 00:53:43;;;;;;;11.68;7.78;;;24.70;64.70;;;;;;352342;28;1141;-56
2023/09/10 00:53:54;;;;;;;12.55;8.07;;;24.80;64.80;;;;;;352313;28;935;-57
2023/09/10 00:54:05;;;;;;;12.50;8.30;;;24.80;64.80;;;;;;352404;28;995;-56
2023/09/10 00:54:17;;;;;;;11.63;8.65;;;24.80;64.80;;;;;;352368;28;984;-56
2023/09/10 00:54:32;;;;;;;10.60;8.50;;;24.70;65.00;;;;;;352325;28;1122;-56
2023/09/10 00:54:43;;;;;;;10.82;7.82;;;24.70;65.20;;;;;;352295;28;1074;-56
2023/09/10 00:54:54;;;;;;;10.77;7.60;;;24.80;65.00;;;;;;352343;28;994;-56
2023/09/10 00:55:05;;;;;;;10.98;7.63;;;24.70;64.80;;;;;;352322;28;1464;-56
2023/09/10 00:55:18;;;;;;;11.13;7.90;;;24.70;64.70;;;;;;352403;28;1010;-56
2023/09/10 00:55:29;;;;;;;11.18;7.95;;;24.80;64.70;;;;;;352307;28;1124;-56
2023/09/10 00:55:40;;;;;;;10.93;8.30;;;24.70;65.00;;;;;;352386;28;1138;-55
2023/09/10 00:55:52;;;;;;;10.43;8.27;;;24.80;65.10;;;;;;352351;28;892;-56
2023/09/10 00:56:03;;;;;;;9.57;7.63;;;24.70;65.20;;;;;;352245;28;1527;-55
2023/09/10 00:56:14;;;;;;;9.57;7.63;;;24.80;65.20;;;;;;352332;28;889;-56
2023/09/10 00:56:25;;;;;;;10.65;7.65;;;24.70;65.20;;;;;;352380;28;943;-56
2023/09/10 00:56:35;;;;;;;11.10;7.95;;;24.70;65.00;;;;;;352370;28;995;-55
2023/09/10 00:56:46;;;;;;;11.85;8.55;;;24.70;65.00;;;;;;352320;28;1969;-56
2023/09/10 00:56:57;;;;;;;10.70;8.50;;;24.80;65.10;;;;;;352300;28;1026;-57
2023/09/10 00:57:08;;;;;;;9.70;8.30;;;24.70;65.20;;;;;;352424;28;1073;-56
2023/09/10 00:57:20;;;;;;;9.10;7.80;;;24.70;65.20;;;;;;352392;28;1043;-56
2023/09/10 00:57:32;;;;;;;10.30;7.85;;;24.70;65.10;;;;;;352290;28;1078;-56
2023/09/10 00:57:43;;;;;;;12.23;7.93;;;24.70;65.10;;;;;;352322;28;872;-55
2023/09/10 00:57:55;;;;;;;12.68;8.30;;;24.70;65.00;;;;;;352389;28;1042;-56
2023/09/10 00:58:06;;;;;;;14.27;8.43;;;24.70;64.90;;;;;;352344;28;1155;-56
2023/09/10 00:58:17;;;;;;;13.88;8.25;;;24.70;64.90;;;;;;352295;28;1141;-56
2023/09/10 00:58:28;;;;;;;12.55;8.00;;;24.70;64.90;;;;;;352375;28;1018;-56
2023/09/10 00:58:39;;;;;;;11.73;8.27;;;24.70;65.10;;;;;;352371;28;1149;-57